Portada
METAR-TAF:

METAR-TAF

Aeropuertos :

Xi'an, China

Aeropuerto Internacional de Xi'an-Xianyang

latitud: 34-26N, longitud: 108-45E, altitud: 479 m

Observación

El informe se hizo hace 13 minutos, a las 23:00 UTC
Viento 6 kt del noreste, variando entre norte y este-noreste
Temperatura 5°C
Humedad 48%
Presión 1032 hPa
Visibilidad 10 km o más
sin nubes por debajo de 1500 m y sin presencia de cumulonimbus.

METAR: ZLXY 172300Z 04003MPS 010V070 CAVOK 05/M05 Q1032 NOSIG

Hora: 07:13 (23:13 UTC)

Pronóstico

El informe se hizo hace 7 horas y 49 minutos, a las 15:24 UTC
Pronóstico válido del 17 a las 18 UTC al 18 a las 18 UTC
Viento 8 kt del este-noreste
Visibilidad: 3000 m
calima

TAF: ZLXY 171524Z 1718/1818 06004MPS 3000 HZ NSC TX09/1807Z TN00/1723Z

Observaciones y pronósticos meteorológicos de más de 4000 aeropuertos (mensajes METAR y TAF).

Los puntos amarillos y rojos representan las estaciones disponibles.

Ponga el ratón en el punto deseado para ver el nombre de la estación.

Haga clic para ver las observaciones y los pronósticos meteorológicos.

Para cambiar el mapa : haga clic en los botones verdes con una cruz de color negro para hacer un zoom, en el botón verde con un guión para alejar o en las flechas verdes para mapas adyacentes.


METAR-TAF: